Aviation Digital Data Service (ADDS)

Output produced by METARs form (2039 UTC 22 May 2015)
found at http://aviationweather.gov/adds/metars/
 
KMPV 221720Z 2218/2318 32013G22KT P6SM BKN050 
     FM230200 32008KT P6SM SCT070 
     FM231400 32010G20KT P6SM FEW050